EGNR - Hawarden
Distance from station: E 5mi, 14km
Updated: 10/23/2017 12:50pm
NOT Current
Clear
Clear
 Wind from SSE
Wind: SSE 10 mph , 17 km/h
Temperature: 59°F , 15°C
Dew Point: 54°F , 12°C
Humidity: 82%
Barometer: 29.94 inHg , 1014 hPa
Summary: Clear
Visibility: greater than 7 miles , 10 km
2017/10/23 19:50 EGNR 231950Z 15009KT CAVOK 15/12 Q1014